createdAt,value
2024-03-12T14:08:22.727Z,7.50
2024-03-12T14:10:52.946Z,7.40
2024-03-12T14:13:23.056Z,7.40
2024-03-12T14:15:50.648Z,7.30
2024-03-12T14:18:22.421Z,7.10
2024-03-12T14:20:52.533Z,7.10
2024-03-12T14:23:20.094Z,7.10
2024-03-12T14:25:47.250Z,7.10
2024-03-12T14:28:15.669Z,7.00
2024-03-12T14:30:46.692Z,7.00
2024-03-12T14:33:15.751Z,7.00
2024-03-12T14:35:42.794Z,7.00
2024-03-12T14:38:09.689Z,7.00
2024-03-12T14:40:36.646Z,7.00
2024-03-12T14:43:04.852Z,7.00
2024-03-12T14:45:32.734Z,7.00
2024-03-12T14:47:59.806Z,7.10
2024-03-12T14:50:27.134Z,7.00
2024-03-12T14:52:54.853Z,7.00
2024-03-12T14:55:22.008Z,7.10
2024-03-12T14:57:49.066Z,7.00
2024-03-12T15:00:18.091Z,7.00
2024-03-12T15:02:45.249Z,7.00
2024-03-12T15:05:12.693Z,6.90
2024-03-12T15:07:45.111Z,6.80
2024-03-12T15:10:13.250Z,6.80
2024-03-12T15:12:42.192Z,6.80
2024-03-12T15:15:14.462Z,6.80
2024-03-12T15:17:42.783Z,6.80
2024-03-12T15:20:17.052Z,6.70
2024-03-12T15:22:46.545Z,6.80
2024-03-12T15:25:14.127Z,6.80
2024-03-12T15:27:43.366Z,6.70
2024-03-12T15:30:11.175Z,6.60
2024-03-12T15:32:39.998Z,6.60
2024-03-12T15:35:07.803Z,6.50
2024-03-12T15:37:37.002Z,6.50
2024-03-12T15:40:15.201Z,6.30
2024-03-12T15:42:45.654Z,6.30
2024-03-12T22:30:18.884Z,3.80
2024-03-12T22:32:46.633Z,3.70
2024-03-12T22:35:13.903Z,3.70
2024-03-12T22:37:44.522Z,3.70
2024-03-12T22:40:13.764Z,3.70
2024-03-12T22:42:41.410Z,3.60
2024-03-12T22:45:10.208Z,3.60
2024-03-12T22:47:37.538Z,3.50
2024-03-12T22:50:04.799Z,3.50
2024-03-12T22:52:31.997Z,3.40
2024-03-12T22:54:59.150Z,3.40
2024-03-12T22:57:27.968Z,3.30
2024-03-12T22:59:55.175Z,3.30
2024-03-12T23:02:23.477Z,3.20
2024-03-12T23:04:52.214Z,3.20
2024-03-12T23:07:19.966Z,3.10
2024-03-12T23:09:48.685Z,3.10
2024-03-12T23:12:16.464Z,3.00
2024-03-12T23:14:44.717Z,3.00
2024-03-12T23:17:11.747Z,3.10
2024-03-12T23:19:41.976Z,3.10
2024-03-12T23:22:10.428Z,3.00
2024-03-12T23:24:39.314Z,3.00
2024-03-12T23:27:06.719Z,3.00
2024-03-12T23:29:33.806Z,3.00
2024-03-12T23:32:01.224Z,3.00
2024-03-12T23:34:28.466Z,3.00
2024-03-12T23:36:55.770Z,3.00
2024-03-12T23:39:24.994Z,3.00
2024-03-12T23:41:53.709Z,3.00
2024-03-12T23:44:20.864Z,2.90
2024-03-12T23:46:47.932Z,2.90
2024-03-12T23:49:15.094Z,2.90
2024-03-12T23:51:42.329Z,2.90
2024-03-12T23:54:09.300Z,2.90
2024-03-12T23:56:39.564Z,2.90
2024-03-12T23:59:06.761Z,2.80
